createdAt,value
2023-03-11T00:01:49.925Z,18.58
2023-03-11T00:07:52.590Z,18.50
2023-03-11T00:13:54.938Z,31.25
2023-03-11T00:19:57.278Z,18.33
2023-03-11T00:26:01.685Z,23.27
2023-03-11T00:32:04.223Z,32.85
2023-03-11T00:38:08.165Z,23.33
2023-03-11T00:44:12.854Z,22.20
2023-03-11T00:50:21.369Z,17.27
2023-03-11T00:56:23.709Z,17.05
2023-03-11T01:02:26.080Z,19.15
2023-03-11T01:08:29.964Z,20.65
2023-03-11T01:14:32.239Z,17.73
2023-03-11T01:20:36.123Z,20.52
2023-03-11T01:26:38.482Z,13.98
2023-03-11T01:32:40.796Z,21.02
2023-03-11T01:38:43.336Z,14.27
2023-03-11T01:44:45.806Z,14.77
2023-03-11T01:50:51.208Z,9.18
2023-03-11T01:56:56.056Z,13.13
2023-03-11T02:03:02.564Z,10.98
2023-03-11T02:09:04.910Z,13.68
2023-03-11T02:21:29.263Z,15.35
2023-03-11T02:27:39.964Z,9.90
2023-03-11T02:33:45.734Z,13.55
2023-03-11T02:39:51.179Z,13.82
2023-03-11T02:45:54.457Z,18.17
2023-03-11T02:51:56.863Z,23.77
2023-03-11T02:57:59.180Z,16.55
2023-03-11T03:04:01.929Z,20.60
2023-03-11T03:10:08.078Z,23.25
2023-03-11T03:16:11.349Z,20.55
2023-03-11T03:22:13.912Z,22.60
2023-03-11T03:28:17.291Z,17.45
2023-03-11T03:34:21.385Z,18.05
2023-03-11T03:40:23.963Z,16.73
2023-03-11T03:46:28.813Z,14.90
2023-03-11T03:52:33.617Z,17.08
2023-03-11T03:58:36.872Z,16.17
2023-03-11T04:04:39.478Z,13.80
2023-03-11T04:10:42.063Z,14.38
2023-03-11T04:16:44.529Z,24.90
2023-03-11T04:22:49.081Z,20.05
2023-03-11T04:28:53.876Z,20.13
2023-03-11T04:34:57.399Z,18.05
2023-03-11T04:41:04.207Z,13.88
2023-03-11T04:47:06.921Z,13.48
2023-03-11T04:53:10.100Z,12.73
2023-03-11T05:05:17.197Z,21.25
2023-03-11T05:11:19.457Z,18.48
2023-03-11T05:17:23.295Z,13.75
2023-03-11T05:23:28.849Z,15.55
2023-03-11T05:29:31.979Z,14.80
2023-03-11T05:35:35.005Z,17.48
2023-03-11T05:41:37.533Z,19.02
2023-03-11T05:47:42.474Z,15.02
2023-03-11T05:53:48.900Z,17.27
2023-03-11T05:59:56.761Z,16.17
2023-03-11T06:05:59.716Z,14.13
2023-03-11T06:12:02.347Z,13.98
2023-03-11T06:18:14.602Z,17.27
2023-03-11T06:24:17.313Z,14.43
2023-03-11T06:36:31.172Z,16.58
2023-03-11T06:42:34.997Z,8.00
2023-03-11T06:48:38.284Z,16.45
2023-03-11T06:54:40.748Z,10.93
2023-03-11T07:00:44.062Z,11.00
2023-03-11T07:06:46.662Z,8.75
2023-03-11T07:12:55.421Z,7.75
2023-03-11T07:19:03.723Z,9.13
2023-03-11T07:25:06.619Z,5.28
2023-03-11T07:37:12.376Z,9.25
2023-03-11T07:43:15.143Z,8.18
2023-03-11T07:49:17.430Z,7.25
2023-03-11T07:55:19.544Z,10.82
2023-03-11T08:01:24.686Z,15.40
2023-03-11T08:07:27.381Z,9.15
2023-03-11T08:19:32.116Z,16.52
2023-03-11T08:25:34.544Z,9.05
2023-03-11T08:31:37.184Z,8.95
2023-03-11T08:37:39.572Z,12.82
2023-03-11T08:43:42.609Z,18.40
2023-03-11T08:49:45.081Z,17.38
2023-03-11T08:55:47.437Z,14.10
2023-03-11T09:01:49.921Z,19.80
2023-03-11T09:07:52.309Z,19.65
2023-03-11T09:13:54.833Z,27.30
2023-03-11T09:19:57.705Z,29.25
2023-03-11T09:25:59.937Z,30.15
2023-03-11T09:32:02.209Z,30.98
2023-03-11T09:38:04.303Z,24.88
2023-03-11T09:44:16.639Z,19.23
2023-03-11T09:50:31.002Z,20.55
2023-03-11T09:56:36.423Z,21.52
2023-03-11T10:02:39.015Z,19.58
2023-03-11T10:08:55.226Z,18.13
2023-03-11T10:15:06.850Z,17.75
2023-03-11T10:21:40.298Z,18.40
2023-03-11T10:27:45.347Z,23.52
2023-03-11T10:34:16.571Z,25.10
2023-03-11T10:40:27.362Z,25.80
2023-03-11T10:46:29.753Z,26.88
2023-03-11T10:52:31.920Z,25.05
2023-03-11T10:58:34.647Z,26.17
2023-03-11T11:04:41.708Z,20.48
2023-03-11T11:10:52.687Z,26.60
2023-03-11T11:16:55.306Z,20.58
2023-03-11T11:29:10.393Z,14.75
2023-03-11T11:35:15.775Z,13.57
2023-03-11T11:41:20.873Z,13.13
2023-03-11T11:47:30.633Z,11.23
2023-03-11T11:53:50.457Z,11.60
2023-03-11T11:59:52.876Z,9.63
2023-03-11T12:12:17.788Z,22.63
2023-03-11T12:18:28.503Z,10.30
2023-03-11T12:24:37.999Z,9.82
2023-03-11T12:30:48.758Z,9.32
2023-03-11T12:36:52.993Z,12.60
2023-03-11T12:42:55.381Z,9.48
2023-03-11T12:49:12.759Z,8.00
2023-03-11T12:55:17.642Z,11.10
2023-03-11T13:01:46.248Z,13.05
2023-03-11T13:07:57.468Z,8.25
2023-03-11T13:14:16.772Z,12.18
2023-03-11T13:20:42.077Z,8.32
2023-03-11T13:27:04.969Z,6.78
2023-03-11T13:33:22.383Z,6.47
2023-03-11T13:39:55.419Z,7.68
2023-03-11T13:46:29.063Z,4.73
2023-03-11T13:58:35.109Z,16.33
2023-03-11T14:04:40.154Z,5.47
2023-03-11T14:10:52.473Z,3.85
2023-03-11T14:16:55.367Z,4.60
2023-03-11T14:22:58.211Z,5.50
2023-03-11T14:29:07.441Z,6.28
2023-03-11T14:35:21.048Z,5.65
2023-03-11T14:41:23.676Z,5.10
2023-03-11T14:47:46.168Z,5.30
2023-03-11T14:54:14.718Z,5.27
2023-03-11T15:00:25.380Z,3.72
2023-03-11T15:06:30.119Z,5.60
2023-03-11T15:12:35.242Z,13.38
2023-03-11T15:18:38.598Z,5.60
2023-03-11T15:24:41.131Z,6.20
2023-03-11T15:30:43.402Z,4.68
2023-03-11T15:36:57.127Z,10.23
2023-03-11T15:43:31.183Z,10.85
2023-03-11T15:49:34.126Z,3.65
2023-03-11T15:55:37.543Z,6.05
2023-03-11T16:01:39.915Z,7.43
2023-03-11T16:07:42.297Z,6.18
2023-03-11T16:13:44.586Z,10.48
2023-03-11T16:19:49.529Z,5.63
2023-03-11T16:25:56.107Z,13.93
2023-03-11T16:31:58.207Z,11.65
2023-03-11T16:38:00.816Z,14.80
2023-03-11T16:50:06.050Z,26.45
2023-03-11T16:56:08.556Z,16.52
2023-03-11T17:02:12.343Z,16.13
2023-03-11T17:08:16.572Z,10.85
2023-03-11T17:14:18.830Z,7.18
2023-03-11T17:20:21.834Z,5.80
2023-03-11T17:26:25.432Z,6.15
2023-03-11T17:32:28.408Z,5.43
2023-03-11T17:38:31.114Z,5.20
2023-03-11T17:44:50.286Z,4.68
2023-03-11T17:50:53.606Z,4.22
2023-03-11T17:56:56.068Z,3.95
2023-03-11T18:02:58.547Z,10.20
2023-03-11T18:09:01.091Z,4.43
2023-03-11T18:15:06.473Z,2.97
2023-03-11T18:21:14.519Z,3.13
2023-03-11T18:27:16.977Z,4.00
2023-03-11T18:33:19.299Z,3.28
2023-03-11T18:39:21.721Z,10.15
2023-03-11T18:45:23.827Z,3.83
2023-03-11T18:51:27.629Z,3.77
2023-03-11T18:57:30.055Z,3.40
2023-03-11T19:03:32.364Z,12.13
2023-03-11T19:09:34.864Z,6.70
2023-03-11T19:15:43.407Z,4.72
2023-03-11T19:21:47.909Z,3.45
2023-03-11T19:27:50.076Z,2.75
2023-03-11T19:33:52.584Z,4.20
2023-03-11T19:39:54.677Z,3.72
2023-03-11T19:45:57.327Z,4.77
2023-03-11T19:51:59.708Z,4.95
2023-03-11T19:58:01.842Z,4.05
2023-03-11T20:04:05.904Z,4.60
2023-03-11T20:10:08.997Z,8.70
2023-03-11T20:16:17.363Z,8.85
2023-03-11T20:22:20.810Z,6.45
2023-03-11T20:28:26.099Z,1.98
2023-03-11T20:34:29.621Z,5.03
2023-03-11T20:40:31.864Z,4.18
2023-03-11T20:46:34.250Z,3.60
2023-03-11T20:52:36.618Z,3.35
2023-03-11T20:58:39.066Z,2.38
2023-03-11T21:04:43.177Z,3.03
2023-03-11T21:10:45.347Z,3.45
2023-03-11T21:16:47.768Z,7.82
2023-03-11T21:22:50.291Z,2.53
2023-03-11T21:28:52.995Z,1.77
2023-03-11T21:34:57.603Z,5.65
2023-03-11T21:41:17.591Z,6.85
2023-03-11T21:47:20.357Z,5.95
2023-03-11T21:59:25.667Z,3.40
2023-03-11T22:05:28.282Z,3.55
2023-03-11T22:11:30.981Z,3.75
2023-03-11T22:17:33.386Z,10.70
2023-03-11T22:23:36.021Z,6.75
2023-03-11T22:35:41.929Z,1.27
2023-03-11T22:41:44.245Z,3.70
2023-03-11T22:47:46.685Z,2.58
2023-03-11T22:53:49.460Z,2.50
2023-03-11T22:59:51.692Z,4.70
2023-03-11T23:05:54.121Z,3.85
2023-03-11T23:11:56.637Z,2.45
2023-03-11T23:17:58.759Z,1.90
2023-03-11T23:24:02.120Z,14.40
2023-03-11T23:30:05.345Z,13.13
2023-03-11T23:36:11.151Z,4.38
2023-03-11T23:42:24.894Z,4.90
2023-03-11T23:48:27.881Z,2.20
2023-03-11T23:54:29.989Z,15.15
